Time;durP1;ratioP1;P1;durP2;ratioP2;P2;SDS_P1;SDS_P2;PMS_P1;PMS_P2;Temp;Humidity;BMP_temperature;BMP_pressure;BME280_temperature;BME280_humidity;BME280_pressure;Samples;Min_cycle;Max_cycle;Signal;HPM_P1;HPM_P2
2022/07/20 00:01:03;;;;;;;3.63;1.88;;;28.80;50.50;;;;;;4174922;28;20037;-66
2022/07/20 00:03:09;;;;;;;5.38;2.50;;;28.70;49.30;;;;;;4179679;28;20380;-66
2022/07/20 00:05:09;;;;;;;3.72;2.10;;;28.70;50.70;;;;;;4179116;28;20502;-67
2022/07/20 00:07:10;;;;;;;3.38;2.28;;;28.80;49.60;;;;;;4178769;28;20065;-66
2022/07/20 00:11:29;;;;;;;5.60;2.65;;;28.70;50.20;;;;;;4178411;28;20377;-66
2022/07/20 00:13:30;;;;;;;3.15;2.05;;;28.80;49.90;;;;;;4162067;28;20045;-66
2022/07/20 00:15:31;;;;;;;3.17;2.17;;;28.70;50.20;;;;;;4162012;28;20061;-66
2022/07/20 00:17:31;;;;;;;4.57;2.53;;;28.70;50.20;;;;;;4158922;28;20038;-66
2022/07/20 00:19:32;;;;;;;5.95;2.55;;;28.70;50.50;;;;;;4178236;28;20029;-66
2022/07/20 00:21:32;;;;;;;7.47;2.25;;;28.70;50.70;;;;;;4161759;28;20033;-67
2022/07/20 00:23:33;;;;;;;4.82;2.30;;;28.70;51.40;;;;;;4162526;28;20132;-66
2022/07/20 00:25:33;;;;;;;5.57;2.30;;;28.70;50.70;;;;;;4162189;28;20025;-67
2022/07/20 00:27:34;;;;;;;4.50;2.53;;;28.80;51.30;;;;;;4161688;28;20037;-66
2022/07/20 00:29:35;;;;;;;4.13;2.42;;;28.80;51.40;;;;;;4162877;28;20084;-66
2022/07/20 00:31:36;;;;;;;4.43;2.50;;;28.70;50.80;;;;;;4178290;28;20028;-67
2022/07/20 00:33:36;;;;;;;2.28;2.05;;;28.70;51.80;;;;;;4179156;28;20070;-66
2022/07/20 00:35:37;;;;;;;4.78;2.22;;;28.80;51.70;;;;;;4178769;28;20492;-66
2022/07/20 00:37:40;;;;;;;3.45;2.30;;;28.70;52.30;;;;;;4178200;28;20041;-66
2022/07/20 00:39:40;;;;;;;;;;;28.70;52.10;;;;;;4178718;28;20488;-66
2022/07/20 00:41:41;;;;;;;2.45;1.70;;;28.70;53.10;;;;;;4178103;28;19919;-66
2022/07/20 00:44:05;;;;;;;2.55;1.80;;;28.70;52.10;;;;;;4178920;28;20039;-66
2022/07/20 00:46:05;;;;;;;3.15;2.05;;;28.70;54.00;;;;;;4177835;28;20029;-67
2022/07/20 00:48:06;;;;;;;3.45;2.20;;;28.70;53.90;;;;;;4177764;28;20124;-66
2022/07/20 00:50:08;;;;;;;4.43;2.22;;;28.70;53.60;;;;;;4177137;28;20060;-66
2022/07/20 00:52:09;;;;;;;3.10;1.70;;;28.60;53.50;;;;;;4178312;28;20029;-66
2022/07/20 00:54:11;;;;;;;4.55;1.88;;;28.60;54.30;;;;;;4178624;28;20125;-66
2022/07/20 00:56:12;;;;;;;4.38;2.15;;;28.60;54.30;;;;;;4177852;28;20538;-66
2022/07/20 00:58:13;;;;;;;3.25;2.20;;;28.60;54.80;;;;;;4177762;28;20033;-66
2022/07/20 01:00:14;;;;;;;4.28;2.20;;;28.50;54.90;;;;;;4176865;28;20029;-67
2022/07/20 01:02:15;;;;;;;4.03;2.10;;;28.50;54.60;;;;;;4178105;28;20037;-66
2022/07/20 01:04:16;;;;;;;2.00;1.80;;;28.50;55.60;;;;;;4178414;28;20082;-66
2022/07/20 01:06:16;;;;;;;2.65;1.95;;;28.50;55.20;;;;;;4176939;28;20052;-66
2022/07/20 01:08:17;;;;;;;3.45;2.15;;;28.40;55.70;;;;;;4177737;28;20373;-66
2022/07/20 01:10:19;;;;;;;4.53;2.08;;;28.40;55.70;;;;;;4176835;28;20045;-67
2022/07/20 01:12:19;;;;;;;3.97;2.35;;;28.40;56.20;;;;;;4178232;28;20037;-66
2022/07/20 01:14:20;;;;;;;2.92;2.00;;;28.40;56.10;;;;;;4178348;28;20048;-66
2022/07/20 01:16:20;;;;;;;3.47;2.33;;;28.30;56.40;;;;;;4177711;28;20108;-66
2022/07/20 01:18:22;;;;;;;2.60;1.90;;;28.30;56.80;;;;;;4177462;28;20487;-66
2022/07/20 01:20:24;;;;;;;3.00;2.20;;;28.30;56.80;;;;;;4176760;28;20045;-66
2022/07/20 01:22:25;;;;;;;2.33;2.10;;;28.30;57.00;;;;;;4178289;28;20041;-66
2022/07/20 01:24:26;;;;;;;3.15;2.10;;;28.30;57.40;;;;;;4178625;28;20476;-66
2022/07/20 01:26:26;;;;;;;2.42;2.00;;;28.20;57.60;;;;;;4177358;28;20032;-66
2022/07/20 01:28:29;;;;;;;3.55;2.30;;;28.10;57.80;;;;;;4177153;28;20059;-66
2022/07/20 01:30:29;;;;;;;;;;;28.10;57.20;;;;;;4176277;28;20037;-67
2022/07/20 01:32:30;;;;;;;3.15;2.05;;;28.10;57.40;;;;;;4177702;28;19915;-66
2022/07/20 01:34:30;;;;;;;11.85;2.75;;;28.00;57.90;;;;;;4178322;28;20029;-68
2022/07/20 01:36:31;;;;;;;3.10;2.13;;;28.00;57.80;;;;;;4176258;28;20107;-66
2022/07/20 01:38:32;;;;;;;3.03;2.30;;;27.90;58.10;;;;;;4178020;28;20033;-66
2022/07/20 01:40:32;;;;;;;4.40;2.35;;;27.90;58.20;;;;;;4176372;28;20029;-66
2022/07/20 01:42:33;;;;;;;3.50;2.20;;;27.90;57.90;;;;;;4177899;28;20435;-66
2022/07/20 01:44:33;;;;;;;2.88;2.20;;;27.80;58.70;;;;;;4177914;28;20073;-66
2022/07/20 01:46:34;;;;;;;4.45;1.80;;;27.80;58.70;;;;;;4176816;28;20108;-66
2022/07/20 01:48:35;;;;;;;3.38;2.42;;;27.80;59.00;;;;;;4176819;28;20108;-66
2022/07/20 01:50:38;;;;;;;2.95;2.05;;;27.70;58.40;;;;;;4176513;28;20040;-66
2022/07/20 01:52:38;;;;;;;3.55;2.13;;;27.70;58.70;;;;;;4177900;28;20037;-66
2022/07/20 01:54:39;;;;;;;2.88;2.20;;;27.70;58.70;;;;;;4177805;28;20550;-66
2022/07/20 01:56:40;;;;;;;2.83;2.00;;;27.70;59.30;;;;;;4176856;28;20033;-66
2022/07/20 01:58:41;;;;;;;2.63;2.00;;;27.60;59.30;;;;;;4177335;28;20025;-66
2022/07/20 02:00:42;;;;;;;3.63;2.20;;;27.60;59.50;;;;;;4176520;28;20553;-66
2022/07/20 02:02:42;;;;;;;3.75;2.25;;;27.50;59.80;;;;;;4177693;28;20049;-66
2022/07/20 02:04:43;;;;;;;3.38;2.05;;;27.50;60.40;;;;;;4177887;28;20036;-66
2022/07/20 02:06:43;;;;;;;3.22;2.00;;;27.50;59.90;;;;;;4176450;28;20489;-66
2022/07/20 02:08:44;;;;;;;3.63;2.28;;;27.50;60.10;;;;;;4177354;28;20029;-66
2022/07/20 02:10:45;;;;;;;3.42;2.22;;;27.40;60.10;;;;;;4176276;28;20029;-66
2022/07/20 02:12:45;;;;;;;2.85;1.90;;;27.40;60.00;;;;;;4177315;28;20052;-66
2022/07/20 02:14:46;;;;;;;3.20;1.95;;;27.30;59.80;;;;;;4177693;28;20484;-66
2022/07/20 02:16:46;;;;;;;3.03;2.10;;;27.30;60.30;;;;;;4176313;28;20029;-66
2022/07/20 02:18:55;;;;;;;5.03;2.20;;;27.30;60.50;;;;;;4180422;28;20029;-66
2022/07/20 02:20:56;;;;;;;2.90;1.90;;;27.20;59.70;;;;;;4179510;28;20503;-66
2022/07/20 02:22:56;;;;;;;4.22;2.30;;;27.20;59.50;;;;;;4180488;28;20049;-66
2022/07/20 02:24:57;;;;;;;2.95;2.15;;;27.20;59.60;;;;;;4180834;28;20025;-66
2022/07/20 02:26:57;;;;;;;2.97;2.30;;;27.10;60.70;;;;;;4179535;28;20489;-66
2022/07/20 02:28:58;;;;;;;4.28;2.08;;;27.10;60.30;;;;;;4180565;28;20087;-66
2022/07/20 02:30:59;;;;;;;2.13;1.92;;;27.10;61.00;;;;;;4179332;28;20108;-66
2022/07/20 02:33:01;;;;;;;2.90;2.10;;;27.10;60.60;;;;;;4180516;28;20512;-66
2022/07/20 02:35:01;;;;;;;4.00;2.20;;;27.00;60.40;;;;;;4179844;28;20065;-66
2022/07/20 02:37:02;;;;;;;2.30;2.00;;;27.00;60.70;;;;;;4179114;28;20028;-66
2022/07/20 02:39:03;;;;;;;4.80;2.53;;;26.90;60.90;;;;;;4180512;28;20103;-66
2022/07/20 02:41:04;;;;;;;3.90;2.13;;;26.90;61.70;;;;;;4179507;28;20040;-66
2022/07/20 02:43:05;;;;;;;2.60;2.00;;;26.90;61.60;;;;;;4180345;28;20037;-66
2022/07/20 02:45:06;;;;;;;4.18;2.45;;;26.90;61.60;;;;;;4180195;28;20086;-66
2022/07/20 02:47:07;;;;;;;2.72;2.10;;;26.80;61.10;;;;;;4179514;28;21412;-66
2022/07/20 02:49:07;;;;;;;3.53;2.10;;;26.80;62.10;;;;;;4180225;28;20033;-66
2022/07/20 02:51:08;;;;;;;4.72;2.72;;;26.70;62.20;;;;;;4179022;28;20040;-66
2022/07/20 02:53:10;;;;;;;4.07;2.38;;;26.70;62.70;;;;;;4180286;28;20040;-66
2022/07/20 02:55:12;;;;;;;2.90;1.90;;;26.70;62.30;;;;;;4179761;28;20025;-66
2022/07/20 02:57:12;;;;;;;4.07;2.22;;;26.60;62.40;;;;;;4179559;28;20029;-66
2022/07/20 02:59:13;;;;;;;4.03;2.20;;;26.50;62.00;;;;;;4180209;28;20601;-66
2022/07/20 03:01:13;;;;;;;4.50;2.58;;;26.40;61.00;;;;;;4178983;28;20395;-66
2022/07/20 03:03:14;;;;;;;2.38;2.00;;;26.30;61.40;;;;;;4179870;28;20082;-66
2022/07/20 03:05:15;;;;;;;3.25;1.80;;;26.30;61.60;;;;;;4179379;28;20037;-66
2022/07/20 03:07:16;;;;;;;2.53;2.08;;;26.30;61.50;;;;;;4179377;28;20033;-66
2022/07/20 03:09:17;;;;;;;2.75;2.20;;;26.20;62.80;;;;;;4179740;28;20511;-66
2022/07/20 03:11:18;;;;;;;4.95;2.17;;;26.20;62.80;;;;;;4178877;28;20029;-66
2022/07/20 03:13:18;;;;;;;3.08;2.20;;;26.20;63.60;;;;;;4180060;28;20040;-66
2022/07/20 03:15:19;;;;;;;3.25;2.35;;;26.10;62.30;;;;;;4179672;28;20029;-66
2022/07/20 03:17:20;;;;;;;4.78;2.47;;;26.00;61.10;;;;;;4179324;28;25097;-66
2022/07/20 03:19:21;;;;;;;6.53;2.50;;;26.00;60.10;;;;;;4179494;28;20037;-66
2022/07/20 03:21:22;;;;;;;6.57;2.83;;;25.90;59.30;;;;;;4178681;28;20052;-66
2022/07/20 03:23:22;;;;;;;5.43;2.55;;;25.90;59.60;;;;;;4179944;28;20401;-66
2022/07/20 03:25:23;;;;;;;3.50;2.75;;;25.70;59.80;;;;;;4179278;28;20036;-66
2022/07/20 03:27:24;;;;;;;3.63;2.65;;;25.60;58.80;;;;;;4178910;28;20032;-66
2022/07/20 03:29:24;;;;;;;4.47;2.50;;;25.60;59.30;;;;;;4178235;28;20040;-66
2022/07/20 03:31:25;;;;;;;4.18;2.70;;;25.60;59.40;;;;;;4178709;28;20061;-66
2022/07/20 03:33:26;;;;;;;3.65;2.40;;;25.60;59.20;;;;;;4179704;28;20036;-66
2022/07/20 03:35:26;;;;;;;4.68;2.20;;;25.60;59.30;;;;;;4178869;28;20526;-66
2022/07/20 03:37:27;;;;;;;6.18;2.42;;;25.60;59.50;;;;;;4178857;28;20380;-66
2022/07/20 03:39:28;;;;;;;2.65;2.05;;;25.60;59.60;;;;;;4179147;28;20041;-66
2022/07/20 03:41:29;;;;;;;6.47;2.65;;;25.60;60.10;;;;;;4178740;28;20480;-65
2022/07/20 03:43:29;;;;;;;3.53;1.88;;;25.60;59.80;;;;;;4179776;28;20044;-65
2022/07/20 03:45:30;;;;;;;4.93;2.55;;;25.70;59.40;;;;;;4179353;28;20040;-66
2022/07/20 03:47:31;;;;;;;2.97;2.10;;;25.70;59.60;;;;;;4178483;28;20030;-67
2022/07/20 03:49:31;;;;;;;6.28;2.50;;;25.70;58.80;;;;;;4178828;28;20041;-67
2022/07/20 03:51:32;;;;;;;3.47;2.58;;;25.70;59.20;;;;;;4178343;28;20041;-66
2022/07/20 03:53:32;;;;;;;3.60;2.42;;;25.70;58.20;;;;;;4179374;28;20443;-65
2022/07/20 03:55:33;;;;;;;6.00;2.50;;;25.70;58.40;;;;;;4178909;28;20033;-66
2022/07/20 03:57:34;;;;;;;4.90;2.53;;;25.60;58.90;;;;;;4178599;28;20492;-66
2022/07/20 03:59:34;;;;;;;4.88;2.75;;;25.70;59.20;;;;;;4178400;28;20041;-66
2022/07/20 04:01:36;;;;;;;4.20;2.47;;;25.60;58.60;;;;;;4177794;28;20061;-66
2022/07/20 04:03:36;;;;;;;4.45;2.83;;;25.70;58.70;;;;;;4188097;28;20086;-66
2022/07/20 04:05:37;;;;;;;3.75;2.33;;;25.60;58.70;;;;;;4192831;28;20032;-66
2022/07/20 04:07:37;;;;;;;3.30;2.17;;;25.60;58.30;;;;;;4184984;28;20446;-66
2022/07/20 04:09:44;;;;;;;5.88;2.85;;;25.60;58.90;;;;;;4178618;28;20045;-66
2022/07/20 04:11:44;;;;;;;7.15;2.78;;;25.60;59.00;;;;;;4178501;28;20087;-66
2022/07/20 04:13:45;;;;;;;3.78;2.63;;;25.60;59.20;;;;;;4179097;28;20492;-66
2022/07/20 04:15:46;;;;;;;4.85;2.45;;;25.60;58.50;;;;;;4178407;28;20479;-66
2022/07/20 04:17:46;;;;;;;4.82;2.70;;;25.60;58.90;;;;;;4177322;28;20503;-65
2022/07/20 04:19:47;;;;;;;4.68;2.45;;;25.60;59.50;;;;;;4187309;28;20037;-66
2022/07/20 04:21:48;;;;;;;6.07;2.65;;;25.60;59.00;;;;;;4178242;28;20432;-66
2022/07/20 04:23:49;;;;;;;4.00;2.22;;;25.60;59.60;;;;;;4179233;28;20044;-66
2022/07/20 04:25:49;;;;;;;3.55;2.45;;;25.60;59.10;;;;;;4177985;28;20415;-66
2022/07/20 04:27:50;;;;;;;4.78;2.40;;;25.60;59.80;;;;;;4176704;28;20056;-66
2022/07/20 04:29:51;;;;;;;2.92;2.13;;;25.70;59.50;;;;;;4177788;28;20128;-66
2022/07/20 04:31:51;;;;;;;6.50;2.95;;;25.60;59.40;;;;;;4178402;28;20033;-66
2022/07/20 04:33:52;;;;;;;4.38;2.25;;;25.70;59.30;;;;;;4185737;28;20058;-66
2022/07/20 04:35:54;;;;;;;4.38;2.60;;;25.60;59.10;;;;;;4193791;28;20090;-65
2022/07/20 04:37:55;;;;;;;;;;;25.70;59.50;;;;;;4178448;28;20380;-66
2022/07/20 04:39:55;;;;;;;3.70;2.53;;;25.60;59.50;;;;;;4178106;28;19909;-66
2022/07/20 04:41:56;;;;;;;5.22;2.80;;;25.60;61.90;;;;;;4177925;28;20029;-66
2022/07/20 04:43:56;;;;;;;9.07;3.08;;;25.60;59.90;;;;;;4178990;28;20036;-66
2022/07/20 04:45:57;;;;;;;4.38;3.03;;;25.60;61.40;;;;;;4177939;28;20496;-66
2022/07/20 04:47:58;;;;;;;4.70;2.88;;;25.50;60.40;;;;;;4179484;28;20044;-66
2022/07/20 04:49:58;;;;;;;3.60;2.58;;;25.50;61.20;;;;;;4188396;28;20055;-66
2022/07/20 04:52:00;;;;;;;7.32;3.55;;;25.50;61.90;;;;;;4178084;28;20491;-66
2022/07/20 04:54:00;;;;;;;7.57;4.10;;;25.50;62.60;;;;;;4178521;28;20035;-66
2022/07/20 04:56:01;;;;;;;7.43;4.15;;;25.40;62.20;;;;;;4177928;28;20387;-66
2022/07/20 04:58:02;;;;;;;7.70;5.03;;;25.30;63.80;;;;;;4177170;28;20025;-66
2022/07/20 05:00:04;;;;;;;10.07;5.30;;;25.20;64.50;;;;;;4177613;28;20079;-67
2022/07/20 05:02:05;;;;;;;;;;;25.20;67.10;;;;;;4178045;28;20048;-66
2022/07/20 05:04:07;;;;;;;8.02;5.85;;;25.20;67.00;;;;;;4192167;28;19908;-66
2022/07/20 05:06:07;;;;;;;12.18;6.55;;;25.10;67.60;;;;;;4194223;28;20120;-66
2022/07/20 05:08:08;;;;;;;9.07;6.38;;;25.10;68.50;;;;;;4178848;28;20516;-66
2022/07/20 05:10:10;;;;;;;13.52;7.88;;;25.10;68.20;;;;;;4177080;28;20037;-69
2022/07/20 05:12:10;;;;;;;12.63;7.82;;;25.10;68.80;;;;;;4178121;28;20051;-66
2022/07/20 05:14:11;;;;;;;13.68;7.60;;;25.10;69.20;;;;;;4178325;28;20057;-66
2022/07/20 05:16:12;;;;;;;17.15;8.15;;;25.10;70.50;;;;;;4177297;28;20029;-66
2022/07/20 05:18:13;;;;;;;14.55;8.60;;;25.10;71.70;;;;;;4177157;28;20499;-66
2022/07/20 05:20:13;;;;;;;15.45;8.50;;;25.10;71.20;;;;;;4175630;28;20033;-66
2022/07/20 05:22:15;;;;;;;20.80;9.02;;;25.10;71.30;;;;;;4175413;28;20029;-66
2022/07/20 05:24:15;;;;;;;17.40;9.00;;;25.10;72.20;;;;;;4177037;28;20115;-66
2022/07/20 05:26:16;;;;;;;17.17;9.02;;;25.10;71.90;;;;;;4177072;28;20029;-66
2022/07/20 05:28:18;;;;;;;10.63;8.15;;;25.10;71.30;;;;;;4170227;28;20048;-66
2022/07/20 05:30:19;;;;;;;17.55;9.55;;;25.20;71.90;;;;;;4175337;28;20437;-64
2022/07/20 05:32:19;;;;;;;15.10;7.88;;;25.20;72.30;;;;;;4176428;28;20067;-64
2022/07/20 05:34:20;;;;;;;20.77;9.63;;;25.20;72.90;;;;;;4176316;28;20387;-64
2022/07/20 05:36:20;;;;;;;19.73;11.00;;;25.20;71.90;;;;;;4179216;28;20041;-64
2022/07/20 05:38:21;;;;;;;19.58;10.75;;;25.30;75.00;;;;;;4176285;28;20040;-64
2022/07/20 05:40:22;;;;;;;16.88;9.98;;;25.30;73.40;;;;;;4175074;28;20033;-64
2022/07/20 05:42:22;;;;;;;14.45;9.63;;;25.30;72.80;;;;;;4177012;28;20150;-64
2022/07/20 05:44:23;;;;;;;14.27;10.18;;;25.30;72.90;;;;;;4176849;28;20497;-64
2022/07/20 05:46:23;;;;;;;17.17;10.77;;;25.40;73.30;;;;;;4176424;28;20048;-64
2022/07/20 05:48:24;;;;;;;15.55;10.23;;;25.40;72.60;;;;;;4176409;28;20043;-64
2022/07/20 05:50:25;;;;;;;19.85;11.38;;;25.40;74.20;;;;;;4175374;28;20094;-64
2022/07/20 05:52:26;;;;;;;21.00;11.15;;;25.50;73.30;;;;;;4176227;28;20068;-64
2022/07/20 05:54:26;;;;;;;15.50;10.48;;;25.50;73.30;;;;;;4176169;28;20061;-64
2022/07/20 05:56:29;;;;;;;17.80;10.68;;;25.60;73.20;;;;;;4176252;28;20075;-64
2022/07/20 05:58:29;;;;;;;14.93;10.85;;;25.60;72.90;;;;;;4176918;28;20048;-64
2022/07/20 06:00:30;;;;;;;17.25;11.45;;;25.60;73.60;;;;;;4175557;28;20531;-64
2022/07/20 06:02:31;;;;;;;18.00;10.88;;;25.70;73.30;;;;;;4176907;28;20090;-64
2022/07/20 06:04:32;;;;;;;15.40;10.60;;;25.70;73.00;;;;;;4178750;28;20064;-64
2022/07/20 06:06:32;;;;;;;16.50;10.65;;;25.80;73.30;;;;;;4175228;28;20388;-65
2022/07/20 06:08:33;;;;;;;21.02;12.35;;;25.90;73.40;;;;;;4176734;28;20041;-65
2022/07/20 06:10:36;;;;;;;17.67;11.52;;;26.10;71.90;;;;;;4175319;28;20341;-65
2022/07/20 06:12:36;;;;;;;;;;;26.20;72.10;;;;;;4177018;28;20040;-65
2022/07/20 06:14:37;;;;;;;17.95;11.38;;;26.50;72.60;;;;;;4176529;28;19909;-65
2022/07/20 06:16:37;;;;;;;16.27;10.32;;;26.90;70.50;;;;;;4175947;28;20439;-65
2022/07/20 06:18:39;;;;;;;20.73;11.18;;;27.00;70.60;;;;;;4176306;28;20044;-65
2022/07/20 06:20:39;;;;;;;15.25;10.32;;;27.30;70.60;;;;;;4175394;28;20503;-65
2022/07/20 06:22:42;;;;;;;13.88;9.02;;;27.70;69.10;;;;;;4176042;28;20025;-65
2022/07/20 06:24:42;;;;;;;16.13;10.38;;;28.00;68.50;;;;;;4176458;28;20045;-65
2022/07/20 06:26:43;;;;;;;14.90;9.80;;;28.40;68.00;;;;;;4174620;28;20025;-65
2022/07/20 06:28:43;;;;;;;13.55;9.52;;;28.80;66.40;;;;;;4175738;28;20088;-65
2022/07/20 06:30:44;;;;;;;16.42;10.18;;;28.90;67.30;;;;;;4174971;28;20032;-65
2022/07/20 06:32:44;;;;;;;15.93;9.95;;;29.00;65.30;;;;;;4175928;28;20724;-65
2022/07/20 06:34:45;;;;;;;14.60;9.95;;;29.10;63.50;;;;;;4176571;28;20041;-65
2022/07/20 06:36:46;;;;;;;19.83;10.63;;;29.20;65.70;;;;;;4174868;28;20033;-65
2022/07/20 06:38:47;;;;;;;16.90;10.80;;;29.30;63.80;;;;;;4175615;28;20421;-65
2022/07/20 06:40:47;;;;;;;14.18;9.25;;;29.40;63.50;;;;;;4176346;28;20033;-65
2022/07/20 06:42:48;;;;;;;13.27;9.23;;;29.50;63.20;;;;;;4176257;28;20040;-65
2022/07/20 06:44:49;;;;;;;15.82;10.13;;;29.50;64.40;;;;;;4175628;28;20033;-65
2022/07/20 06:46:50;;;;;;;14.10;10.18;;;29.70;63.20;;;;;;4169500;28;20029;-65
2022/07/20 06:48:50;;;;;;;18.13;10.20;;;29.50;63.30;;;;;;4175838;28;20538;-65
2022/07/20 06:50:51;;;;;;;11.90;9.25;;;29.60;63.90;;;;;;4173524;28;20037;-65
2022/07/20 06:52:51;;;;;;;17.30;10.70;;;29.60;64.40;;;;;;4174787;28;20384;-66
2022/07/20 06:54:52;;;;;;;17.70;11.65;;;29.60;64.10;;;;;;4176552;28;20105;-65
2022/07/20 06:56:54;;;;;;;17.88;10.48;;;29.60;63.60;;;;;;4154207;28;20072;-66
2022/07/20 06:58:54;;;;;;;14.68;9.98;;;29.40;63.50;;;;;;4157544;28;20038;-66
2022/07/20 07:00:55;;;;;;;14.95;10.68;;;29.60;64.70;;;;;;4174324;28;20028;-66
2022/07/20 07:02:56;;;;;;;17.13;10.90;;;29.60;64.10;;;;;;4176040;28;20486;-66
2022/07/20 07:04:56;;;;;;;15.85;10.05;;;29.50;63.60;;;;;;4177560;28;20029;-66
2022/07/20 07:06:58;;;;;;;16.20;10.05;;;29.60;64.30;;;;;;4181410;28;20489;-65
2022/07/20 07:08:59;;;;;;;14.95;10.90;;;29.40;63.90;;;;;;4178916;28;20062;-65
2022/07/20 07:10:59;;;;;;;15.25;10.60;;;29.50;64.60;;;;;;4179260;28;20396;-66
2022/07/20 07:13:00;;;;;;;17.63;11.25;;;29.50;64.80;;;;;;4179346;28;20037;-66
2022/07/20 07:15:01;;;;;;;20.92;12.27;;;29.60;64.50;;;;;;4179204;28;20060;-66
2022/07/20 07:17:01;;;;;;;23.63;12.13;;;29.50;64.20;;;;;;4178728;28;20034;-65
2022/07/20 07:19:02;;;;;;;21.30;12.57;;;29.20;63.80;;;;;;4178649;28;20376;-65
2022/07/20 07:21:03;;;;;;;18.52;12.10;;;29.00;65.60;;;;;;4177618;28;20024;-67
2022/07/20 07:23:04;;;;;;;19.02;12.38;;;29.00;65.20;;;;;;4178423;28;20040;-66
2022/07/20 07:25:06;;;;;;;20.90;12.80;;;28.80;65.30;;;;;;4178529;28;20025;-66
2022/07/20 07:27:06;;;;;;;20.10;12.63;;;28.80;66.30;;;;;;4178223;28;20025;-65
2022/07/20 07:29:08;;;;;;;21.63;14.27;;;28.70;65.40;;;;;;4177948;28;20101;-65
2022/07/20 07:31:09;;;;;;;25.00;12.85;;;28.60;66.10;;;;;;4177853;28;20040;-65
2022/07/20 07:33:09;;;;;;;23.33;13.20;;;28.70;66.00;;;;;;4178285;28;20542;-65
2022/07/20 07:35:10;;;;;;;18.40;12.43;;;28.50;66.90;;;;;;4178372;28;20532;-65
2022/07/20 07:37:11;;;;;;;18.15;12.38;;;28.60;66.60;;;;;;4179045;28;20488;-65
2022/07/20 07:39:11;;;;;;;21.35;13.93;;;28.60;66.70;;;;;;4178386;28;20062;-65
2022/07/20 07:41:12;;;;;;;18.95;13.10;;;28.60;66.40;;;;;;4177828;28;20049;-65
2022/07/20 07:43:12;;;;;;;21.42;13.98;;;28.60;65.50;;;;;;4178726;28;20025;-65
2022/07/20 07:45:13;;;;;;;26.52;13.65;;;28.60;66.10;;;;;;4178090;28;20032;-65
2022/07/20 07:47:14;;;;;;;25.83;13.27;;;28.70;66.10;;;;;;4178536;28;20029;-65
2022/07/20 07:49:14;;;;;;;19.77;13.23;;;28.70;65.90;;;;;;4178011;28;20037;-65
2022/07/20 07:51:15;;;;;;;19.95;13.32;;;28.70;66.80;;;;;;4178841;28;20029;-65
2022/07/20 07:53:16;;;;;;;20.08;12.38;;;28.70;65.30;;;;;;4178507;28;20116;-65
2022/07/20 07:55:16;;;;;;;24.92;12.55;;;28.80;66.40;;;;;;4177934;28;20103;-65
2022/07/20 07:57:17;;;;;;;17.67;12.55;;;28.80;65.80;;;;;;4178405;28;20492;-65
2022/07/20 07:59:18;;;;;;;25.80;13.93;;;28.90;65.30;;;;;;4177793;28;20427;-65
2022/07/20 08:01:18;;;;;;;16.95;12.02;;;28.80;65.70;;;;;;4177398;28;20033;-65
2022/07/20 08:03:19;;;;;;;18.85;12.68;;;28.90;66.30;;;;;;4178347;28;20489;-65
2022/07/20 08:05:19;;;;;;;15.10;11.60;;;28.80;65.40;;;;;;4177316;28;20108;-65
2022/07/20 08:07:20;;;;;;;17.75;12.05;;;28.80;65.80;;;;;;4178398;28;20039;-65
2022/07/20 08:09:21;;;;;;;16.70;11.45;;;28.90;66.40;;;;;;4177348;28;20033;-65
2022/07/20 08:11:21;;;;;;;19.20;11.68;;;28.90;67.00;;;;;;4177388;28;20094;-65
2022/07/20 08:13:22;;;;;;;20.20;12.20;;;28.90;64.40;;;;;;4178136;28;20039;-65
2022/07/20 08:15:23;;;;;;;15.23;10.40;;;28.80;65.00;;;;;;4176705;28;20044;-65
2022/07/20 08:17:23;;;;;;;14.95;10.55;;;28.90;64.90;;;;;;4177309;28;20033;-65
2022/07/20 08:19:24;;;;;;;16.95;11.23;;;29.00;66.80;;;;;;4177485;28;20719;-65
2022/07/20 08:21:24;;;;;;;18.23;11.80;;;29.10;64.90;;;;;;4178910;28;20045;-65
2022/07/20 08:23:25;;;;;;;23.55;12.77;;;29.20;65.30;;;;;;4178158;28;20037;-65
2022/07/20 08:25:26;;;;;;;21.73;12.10;;;29.20;64.10;;;;;;4177221;28;20056;-65
2022/07/20 08:27:26;;;;;;;15.65;11.18;;;29.10;64.90;;;;;;4177481;28;20119;-65
2022/07/20 08:29:27;;;;;;;14.25;10.57;;;29.20;65.40;;;;;;4177526;28;20037;-65
2022/07/20 08:31:28;;;;;;;14.85;10.18;;;29.30;65.90;;;;;;4177452;28;20032;-65
2022/07/20 08:33:28;;;;;;;17.50;11.60;;;29.40;65.30;;;;;;4177726;28;20416;-65
2022/07/20 08:35:29;;;;;;;16.38;11.15;;;29.40;64.70;;;;;;4176856;28;20111;-65
2022/07/20 08:37:29;;;;;;;17.55;11.20;;;29.40;65.50;;;;;;4177944;28;20041;-65
2022/07/20 08:39:30;;;;;;;15.90;10.45;;;29.50;65.90;;;;;;4177136;28;20492;-65
2022/07/20 08:41:33;;;;;;;19.17;11.13;;;29.50;64.10;;;;;;4159428;28;20034;-65
2022/07/20 08:43:33;;;;;;;18.98;10.45;;;29.50;64.10;;;;;;4177778;28;20392;-65
2022/07/20 08:45:35;;;;;;;15.35;10.30;;;29.50;63.90;;;;;;4176671;28;20029;-67
2022/07/20 08:47:39;;;;;;;20.13;12.27;;;29.50;64.20;;;;;;4172328;28;20033;-66
2022/07/20 08:49:48;;;;;;;19.13;11.55;;;29.40;63.50;;;;;;4173246;28;20399;-65
2022/07/20 08:51:49;;;;;;;14.80;10.55;;;29.40;64.00;;;;;;4175668;28;20033;-65
2022/07/20 08:53:50;;;;;;;15.30;10.13;;;29.30;64.30;;;;;;4177545;28;20045;-65
2022/07/20 08:55:51;;;;;;;20.77;11.27;;;29.30;64.80;;;;;;4177014;28;20053;-65
2022/07/20 08:57:52;;;;;;;17.92;10.93;;;29.40;66.20;;;;;;4177503;28;20513;-65
2022/07/20 08:59:53;;;;;;;16.60;10.52;;;29.50;67.40;;;;;;4177471;28;20029;-65
2022/07/20 09:01:58;;;;;;;19.42;11.63;;;29.50;65.80;;;;;;4176287;28;20032;-65
2022/07/20 09:04:06;;;;;;;15.10;11.23;;;29.60;64.50;;;;;;4177383;28;20044;-65
2022/07/20 09:06:07;;;;;;;16.42;10.05;;;29.70;65.20;;;;;;4175371;28;20044;-65
2022/07/20 09:08:13;;;;;;;15.20;11.20;;;29.80;65.50;;;;;;4177813;28;20037;-65
2022/07/20 09:10:17;;;;;;;15.57;10.32;;;29.80;64.50;;;;;;4173997;28;20151;-65
2022/07/20 09:12:18;;;;;;;16.00;11.15;;;29.80;65.00;;;;;;4177740;28;20033;-65
2022/07/20 09:14:48;;;;;;;15.32;10.50;;;29.80;64.60;;;;;;4177221;28;20075;-65
2022/07/20 09:16:50;;;;;;;17.45;11.18;;;29.90;66.30;;;;;;4176003;28;20369;-65
2022/07/20 09:18:54;;;;;;;18.45;10.98;;;29.90;65.80;;;;;;4177916;28;20365;-65
2022/07/20 09:21:00;;;;;;;17.50;10.75;;;29.90;65.60;;;;;;4176728;28;20116;-65
2022/07/20 09:23:10;;;;;;;18.77;11.35;;;30.00;65.90;;;;;;4180582;28;20033;-65
2022/07/20 09:25:15;;;;;;;16.98;10.55;;;30.00;66.00;;;;;;4176797;28;20036;-67
2022/07/20 09:27:16;;;;;;;13.95;9.57;;;29.90;65.70;;;;;;4176242;28;20496;-65
2022/07/20 09:29:16;;;;;;;16.02;9.63;;;29.90;66.70;;;;;;4176815;28;20094;-65
2022/07/20 09:31:33;;;;;;;16.17;9.68;;;29.90;65.70;;;;;;4174739;28;20500;-65
2022/07/20 09:33:33;;;;;;;17.02;9.55;;;29.90;64.80;;;;;;4176647;28;20056;-65
2022/07/20 09:35:35;;;;;;;15.20;9.43;;;29.80;65.30;;;;;;4174862;28;20040;-65
2022/07/20 09:37:39;;;;;;;13.93;9.00;;;29.80;65.60;;;;;;4178784;28;20040;-66
2022/07/20 09:40:02;;;;;;;18.33;10.75;;;30.00;66.40;;;;;;4176570;28;20025;-65
2022/07/20 09:42:03;;;;;;;17.92;10.48;;;30.00;65.70;;;;;;4175864;28;20025;-65
2022/07/20 09:44:05;;;;;;;16.30;9.40;;;30.00;64.90;;;;;;4177083;28;20072;-65
2022/07/20 09:46:10;;;;;;;18.73;9.63;;;29.90;65.10;;;;;;4172944;28;20063;-65
2022/07/20 09:48:12;;;;;;;13.40;8.60;;;29.80;65.70;;;;;;4177324;28;20021;-66
2022/07/20 09:50:30;;;;;;;16.15;8.65;;;29.70;66.60;;;;;;4175280;28;20094;-64
2022/07/20 09:52:33;;;;;;;13.68;9.23;;;29.70;66.30;;;;;;4179638;28;20031;-65
2022/07/20 09:54:33;;;;;;;12.90;8.75;;;29.60;67.20;;;;;;4176654;28;20033;-66
2022/07/20 09:56:37;;;;;;;11.70;8.45;;;29.70;67.10;;;;;;4176758;28;20112;-66
2022/07/20 09:58:38;;;;;;;12.70;8.00;;;29.60;65.70;;;;;;4175131;28;20420;-66
2022/07/20 10:00:38;;;;;;;16.20;9.25;;;29.70;66.60;;;;;;4176481;28;20507;-67
2022/07/20 10:02:40;;;;;;;12.95;8.60;;;29.60;66.40;;;;;;4177953;28;20041;-66
2022/07/20 10:04:41;;;;;;;13.05;8.02;;;29.60;66.90;;;;;;4175087;28;20636;-65
2022/07/20 10:06:47;;;;;;;11.98;7.47;;;29.70;66.30;;;;;;4185944;28;20037;-65
2022/07/20 10:08:49;;;;;;;11.93;7.68;;;29.70;66.80;;;;;;4174510;28;20041;-66
2022/07/20 10:10:49;;;;;;;16.73;9.00;;;29.80;66.90;;;;;;4173591;28;20041;-65
2022/07/20 10:12:50;;;;;;;12.52;8.43;;;29.70;64.50;;;;;;4175028;28;20823;-65
2022/07/20 10:14:52;;;;;;;13.18;8.63;;;29.70;65.30;;;;;;4177879;28;20107;-67
2022/07/20 10:16:54;;;;;;;14.77;8.07;;;29.70;66.10;;;;;;4177616;28;20091;-68
2022/07/20 10:18:56;;;;;;;18.52;8.88;;;29.70;64.70;;;;;;4177971;28;20098;-67
2022/07/20 10:20:57;;;;;;;19.95;8.23;;;29.60;65.00;;;;;;4176462;28;20424;-67
2022/07/20 10:23:15;;;;;;;11.98;7.97;;;29.60;66.30;;;;;;4192469;28;20055;-67
2022/07/20 10:25:17;;;;;;;16.02;8.18;;;29.60;65.30;;;;;;4173976;28;20044;-68
2022/07/20 10:27:26;;;;;;;19.60;7.93;;;29.60;66.50;;;;;;4174843;28;20378;-68
2022/07/20 10:29:33;;;;;;;21.85;8.55;;;29.60;66.60;;;;;;4174234;28;24651;-67